sensor_id;sensor_type;location;lat;lon;timestamp;temperature;humidity
12436;DHT22;6282;51.440;6.938;2022-10-31T00:01:26;15.30;99.90
12436;DHT22;6282;51.440;6.938;2022-10-31T00:03:53;15.20;99.90
12436;DHT22;6282;51.440;6.938;2022-10-31T00:06:20;15.30;99.90
12436;DHT22;6282;51.440;6.938;2022-10-31T00:08:51;15.30;99.90
12436;DHT22;6282;51.440;6.938;2022-10-31T00:11:20;15.10;99.90
12436;DHT22;6282;51.440;6.938;2022-10-31T00:13:47;14.80;99.90
12436;DHT22;6282;51.440;6.938;2022-10-31T00:16:14;14.70;99.90
12436;DHT22;6282;51.440;6.938;2022-10-31T00:18:42;14.70;99.90
12436;DHT22;6282;51.440;6.938;2022-10-31T00:21:08;14.50;99.90
12436;DHT22;6282;51.440;6.938;2022-10-31T00:23:35;14.30;99.90
12436;DHT22;6282;51.440;6.938;2022-10-31T00:26:03;14.20;99.90
12436;DHT22;6282;51.440;6.938;2022-10-31T00:28:32;14.20;99.90
12436;DHT22;6282;51.440;6.938;2022-10-31T00:30:59;14.30;99.90
12436;DHT22;6282;51.440;6.938;2022-10-31T00:33:26;14.20;99.90
12436;DHT22;6282;51.440;6.938;2022-10-31T00:35:53;14.10;99.90
12436;DHT22;6282;51.440;6.938;2022-10-31T00:38:20;14.10;99.90
12436;DHT22;6282;51.440;6.938;2022-10-31T00:40:47;14.30;99.90
12436;DHT22;6282;51.440;6.938;2022-10-31T00:43:13;14.20;99.90
12436;DHT22;6282;51.440;6.938;2022-10-31T00:45:42;14.40;99.90
12436;DHT22;6282;51.440;6.938;2022-10-31T00:48:09;14.40;99.90
12436;DHT22;6282;51.440;6.938;2022-10-31T00:50:36;14.40;99.90
12436;DHT22;6282;51.440;6.938;2022-10-31T00:53:03;14.40;99.90
12436;DHT22;6282;51.440;6.938;2022-10-31T00:55:30;14.20;99.90
12436;DHT22;6282;51.440;6.938;2022-10-31T00:57:57;14.30;99.90
12436;DHT22;6282;51.440;6.938;2022-10-31T01:00:24;14.40;99.90
12436;DHT22;6282;51.440;6.938;2022-10-31T01:02:52;14.40;99.90
12436;DHT22;6282;51.440;6.938;2022-10-31T01:05:19;14.30;99.90
12436;DHT22;6282;51.440;6.938;2022-10-31T01:07:46;14.30;99.90
12436;DHT22;6282;51.440;6.938;2022-10-31T01:10:13;14.20;99.90
12436;DHT22;6282;51.440;6.938;2022-10-31T01:12:42;14.40;99.90
12436;DHT22;6282;51.440;6.938;2022-10-31T01:15:10;14.40;99.90
12436;DHT22;6282;51.440;6.938;2022-10-31T01:17:37;14.50;99.90
12436;DHT22;6282;51.440;6.938;2022-10-31T01:20:07;14.50;99.90
12436;DHT22;6282;51.440;6.938;2022-10-31T01:22:34;14.50;99.90
12436;DHT22;6282;51.440;6.938;2022-10-31T01:25:01;14.40;99.90
12436;DHT22;6282;51.440;6.938;2022-10-31T01:27:28;14.50;99.90
12436;DHT22;6282;51.440;6.938;2022-10-31T01:29:55;14.50;99.90
12436;DHT22;6282;51.440;6.938;2022-10-31T01:32:22;14.50;99.90
12436;DHT22;6282;51.440;6.938;2022-10-31T01:34:50;14.60;99.90
12436;DHT22;6282;51.440;6.938;2022-10-31T01:37:18;14.70;99.90
12436;DHT22;6282;51.440;6.938;2022-10-31T01:39:44;14.80;99.90
12436;DHT22;6282;51.440;6.938;2022-10-31T01:42:17;14.70;99.90
12436;DHT22;6282;51.440;6.938;2022-10-31T01:44:57;14.60;99.90
12436;DHT22;6282;51.440;6.938;2022-10-31T01:47:38;14.50;99.90
12436;DHT22;6282;51.440;6.938;2022-10-31T01:50:12;14.50;99.90
12436;DHT22;6282;51.440;6.938;2022-10-31T01:52:44;14.40;99.90
12436;DHT22;6282;51.440;6.938;2022-10-31T01:55:16;14.40;99.90
12436;DHT22;6282;51.440;6.938;2022-10-31T01:57:45;14.30;99.90
12436;DHT22;6282;51.440;6.938;2022-10-31T02:00:14;14.20;99.90
12436;DHT22;6282;51.440;6.938;2022-10-31T02:02:41;14.10;99.90
12436;DHT22;6282;51.440;6.938;2022-10-31T02:05:12;14.00;99.90
12436;DHT22;6282;51.440;6.938;2022-10-31T02:07:45;13.90;99.90
12436;DHT22;6282;51.440;6.938;2022-10-31T02:10:15;13.90;99.90
12436;DHT22;6282;51.440;6.938;2022-10-31T02:12:42;13.90;99.90
12436;DHT22;6282;51.440;6.938;2022-10-31T02:15:09;13.80;99.90
12436;DHT22;6282;51.440;6.938;2022-10-31T02:17:36;13.70;99.90
12436;DHT22;6282;51.440;6.938;2022-10-31T02:20:11;13.80;99.90
12436;DHT22;6282;51.440;6.938;2022-10-31T02:22:57;13.80;99.90
12436;DHT22;6282;51.440;6.938;2022-10-31T02:25:45;14.00;99.90
12436;DHT22;6282;51.440;6.938;2022-10-31T02:28:41;14.00;99.90
12436;DHT22;6282;51.440;6.938;2022-10-31T02:31:24;13.70;99.90
12436;DHT22;6282;51.440;6.938;2022-10-31T02:33:57;13.70;99.90
12436;DHT22;6282;51.440;6.938;2022-10-31T02:36:27;13.60;99.90
12436;DHT22;6282;51.440;6.938;2022-10-31T02:39:01;13.50;99.90
12436;DHT22;6282;51.440;6.938;2022-10-31T02:41:34;13.40;99.90
12436;DHT22;6282;51.440;6.938;2022-10-31T02:44:08;13.40;99.90
12436;DHT22;6282;51.440;6.938;2022-10-31T02:46:42;13.50;99.90
12436;DHT22;6282;51.440;6.938;2022-10-31T02:49:15;13.50;99.90
12436;DHT22;6282;51.440;6.938;2022-10-31T02:51:45;13.50;99.90
12436;DHT22;6282;51.440;6.938;2022-10-31T02:54:18;13.50;99.90
12436;DHT22;6282;51.440;6.938;2022-10-31T02:56:46;13.50;99.90
12436;DHT22;6282;51.440;6.938;2022-10-31T02:59:14;13.40;99.90
12436;DHT22;6282;51.440;6.938;2022-10-31T03:02:08;13.30;99.90
12436;DHT22;6282;51.440;6.938;2022-10-31T03:04:50;13.20;99.90
12436;DHT22;6282;51.440;6.938;2022-10-31T03:07:28;13.40;99.90
12436;DHT22;6282;51.440;6.938;2022-10-31T03:10:03;13.40;99.90
12436;DHT22;6282;51.440;6.938;2022-10-31T03:12:38;13.20;99.90
12436;DHT22;6282;51.440;6.938;2022-10-31T03:15:13;13.10;99.90
12436;DHT22;6282;51.440;6.938;2022-10-31T03:17:47;13.00;99.90
12436;DHT22;6282;51.440;6.938;2022-10-31T03:20:21;13.20;99.90
12436;DHT22;6282;51.440;6.938;2022-10-31T03:22:50;13.00;99.90
12436;DHT22;6282;51.440;6.938;2022-10-31T03:25:18;12.80;99.90
12436;DHT22;6282;51.440;6.938;2022-10-31T03:27:46;12.80;99.90
12436;DHT22;6282;51.440;6.938;2022-10-31T03:30:14;12.70;99.90
12436;DHT22;6282;51.440;6.938;2022-10-31T03:32:47;12.80;99.90
12436;DHT22;6282;51.440;6.938;2022-10-31T03:35:17;12.60;99.90
12436;DHT22;6282;51.440;6.938;2022-10-31T03:37:47;12.60;99.90
12436;DHT22;6282;51.440;6.938;2022-10-31T03:40:15;12.50;99.90
12436;DHT22;6282;51.440;6.938;2022-10-31T03:42:48;12.60;99.90
12436;DHT22;6282;51.440;6.938;2022-10-31T03:45:22;12.80;99.90
12436;DHT22;6282;51.440;6.938;2022-10-31T03:47:51;12.90;99.90
12436;DHT22;6282;51.440;6.938;2022-10-31T03:50:19;13.10;99.90
12436;DHT22;6282;51.440;6.938;2022-10-31T03:52:49;13.10;99.90
12436;DHT22;6282;51.440;6.938;2022-10-31T03:55:18;13.10;99.90
12436;DHT22;6282;51.440;6.938;2022-10-31T03:57:51;13.10;99.90
12436;DHT22;6282;51.440;6.938;2022-10-31T04:00:19;12.80;99.90
12436;DHT22;6282;51.440;6.938;2022-10-31T04:02:51;12.90;99.90
12436;DHT22;6282;51.440;6.938;2022-10-31T04:05:20;12.90;99.90
12436;DHT22;6282;51.440;6.938;2022-10-31T04:07:51;12.80;99.90
12436;DHT22;6282;51.440;6.938;2022-10-31T04:10:20;13.10;99.90
12436;DHT22;6282;51.440;6.938;2022-10-31T04:12:50;12.60;99.90
12436;DHT22;6282;51.440;6.938;2022-10-31T04:15:19;12.60;99.90
12436;DHT22;6282;51.440;6.938;2022-10-31T04:17:47;12.70;99.90
12436;DHT22;6282;51.440;6.938;2022-10-31T04:20:18;12.80;99.90
12436;DHT22;6282;51.440;6.938;2022-10-31T04:22:45;13.00;99.90
12436;DHT22;6282;51.440;6.938;2022-10-31T04:25:12;12.90;99.90
12436;DHT22;6282;51.440;6.938;2022-10-31T04:27:38;12.70;99.90
12436;DHT22;6282;51.440;6.938;2022-10-31T04:30:06;12.80;99.90
12436;DHT22;6282;51.440;6.938;2022-10-31T04:32:33;12.70;99.90
12436;DHT22;6282;51.440;6.938;2022-10-31T04:35:00;12.70;99.90
12436;DHT22;6282;51.440;6.938;2022-10-31T04:37:28;12.90;99.90
12436;DHT22;6282;51.440;6.938;2022-10-31T04:39:55;13.00;99.90
12436;DHT22;6282;51.440;6.938;2022-10-31T04:42:22;12.80;99.90
12436;DHT22;6282;51.440;6.938;2022-10-31T04:44:49;12.60;99.90
12436;DHT22;6282;51.440;6.938;2022-10-31T04:47:15;12.40;99.90
12436;DHT22;6282;51.440;6.938;2022-10-31T04:49:42;12.40;99.90
12436;DHT22;6282;51.440;6.938;2022-10-31T04:52:09;13.00;99.90
12436;DHT22;6282;51.440;6.938;2022-10-31T04:54:37;12.80;99.90
12436;DHT22;6282;51.440;6.938;2022-10-31T04:57:04;13.00;99.90
12436;DHT22;6282;51.440;6.938;2022-10-31T04:59:31;13.00;99.90
12436;DHT22;6282;51.440;6.938;2022-10-31T05:01:58;13.10;99.90
12436;DHT22;6282;51.440;6.938;2022-10-31T05:04:25;13.00;99.90
12436;DHT22;6282;51.440;6.938;2022-10-31T05:06:51;13.00;99.90
12436;DHT22;6282;51.440;6.938;2022-10-31T05:09:18;13.00;99.90
12436;DHT22;6282;51.440;6.938;2022-10-31T05:11:46;13.00;99.90
12436;DHT22;6282;51.440;6.938;2022-10-31T05:14:13;13.00;99.90
12436;DHT22;6282;51.440;6.938;2022-10-31T05:16:40;13.00;99.90
12436;DHT22;6282;51.440;6.938;2022-10-31T05:19:07;12.70;99.90
12436;DHT22;6282;51.440;6.938;2022-10-31T05:21:34;12.60;99.90
12436;DHT22;6282;51.440;6.938;2022-10-31T05:24:00;12.60;99.90
12436;DHT22;6282;51.440;6.938;2022-10-31T05:26:27;12.70;99.90
12436;DHT22;6282;51.440;6.938;2022-10-31T05:28:55;12.40;99.90
12436;DHT22;6282;51.440;6.938;2022-10-31T05:31:22;12.60;99.90
12436;DHT22;6282;51.440;6.938;2022-10-31T05:33:49;12.70;99.90
12436;DHT22;6282;51.440;6.938;2022-10-31T05:36:16;12.50;99.90
12436;DHT22;6282;51.440;6.938;2022-10-31T05:38:43;12.40;99.90
12436;DHT22;6282;51.440;6.938;2022-10-31T05:41:09;12.40;99.90
12436;DHT22;6282;51.440;6.938;2022-10-31T05:43:36;12.60;99.90
12436;DHT22;6282;51.440;6.938;2022-10-31T05:46:04;12.50;99.90
12436;DHT22;6282;51.440;6.938;2022-10-31T05:48:31;12.60;99.90
12436;DHT22;6282;51.440;6.938;2022-10-31T05:50:58;12.50;99.90
12436;DHT22;6282;51.440;6.938;2022-10-31T05:53:25;12.50;99.90
12436;DHT22;6282;51.440;6.938;2022-10-31T05:55:52;12.70;99.90
12436;DHT22;6282;51.440;6.938;2022-10-31T05:58:19;12.70;99.90
12436;DHT22;6282;51.440;6.938;2022-10-31T06:00:45;13.00;99.90
12436;DHT22;6282;51.440;6.938;2022-10-31T06:03:13;13.00;99.90
12436;DHT22;6282;51.440;6.938;2022-10-31T06:05:40;12.70;99.90
12436;DHT22;6282;51.440;6.938;2022-10-31T06:08:07;13.10;99.90
12436;DHT22;6282;51.440;6.938;2022-10-31T06:10:34;12.70;99.90
12436;DHT22;6282;51.440;6.938;2022-10-31T06:13:01;12.70;99.90
12436;DHT22;6282;51.440;6.938;2022-10-31T06:15:28;12.90;99.90
12436;DHT22;6282;51.440;6.938;2022-10-31T06:17:59;12.80;99.90
12436;DHT22;6282;51.440;6.938;2022-10-31T06:20:27;12.50;99.90
12436;DHT22;6282;51.440;6.938;2022-10-31T06:22:54;12.50;99.90
12436;DHT22;6282;51.440;6.938;2022-10-31T06:25:20;12.40;99.90
12436;DHT22;6282;51.440;6.938;2022-10-31T06:27:47;12.40;99.90
12436;DHT22;6282;51.440;6.938;2022-10-31T06:30:14;12.30;99.90
12436;DHT22;6282;51.440;6.938;2022-10-31T06:32:41;12.40;99.90
12436;DHT22;6282;51.440;6.938;2022-10-31T06:35:08;12.70;99.90
12436;DHT22;6282;51.440;6.938;2022-10-31T06:37:37;12.60;99.90
12436;DHT22;6282;51.440;6.938;2022-10-31T06:40:05;12.60;99.90
12436;DHT22;6282;51.440;6.938;2022-10-31T06:42:31;12.80;99.90
12436;DHT22;6282;51.440;6.938;2022-10-31T06:44:58;12.80;99.90
12436;DHT22;6282;51.440;6.938;2022-10-31T06:47:25;12.90;99.90
12436;DHT22;6282;51.440;6.938;2022-10-31T06:49:55;12.60;99.90
12436;DHT22;6282;51.440;6.938;2022-10-31T06:52:21;12.60;99.90
12436;DHT22;6282;51.440;6.938;2022-10-31T06:54:50;13.00;99.90
12436;DHT22;6282;51.440;6.938;2022-10-31T06:57:17;12.90;99.90
12436;DHT22;6282;51.440;6.938;2022-10-31T06:59:44;13.10;99.90
12436;DHT22;6282;51.440;6.938;2022-10-31T07:02:11;12.80;99.90
12436;DHT22;6282;51.440;6.938;2022-10-31T07:04:38;12.90;99.90
12436;DHT22;6282;51.440;6.938;2022-10-31T07:07:05;12.80;99.90
12436;DHT22;6282;51.440;6.938;2022-10-31T07:09:31;12.70;99.90
12436;DHT22;6282;51.440;6.938;2022-10-31T07:12:00;12.70;99.90
12436;DHT22;6282;51.440;6.938;2022-10-31T07:14:26;13.00;99.90
12436;DHT22;6282;51.440;6.938;2022-10-31T07:16:53;12.80;99.90
12436;DHT22;6282;51.440;6.938;2022-10-31T07:19:20;13.00;99.90
12436;DHT22;6282;51.440;6.938;2022-10-31T07:21:47;13.20;99.90
12436;DHT22;6282;51.440;6.938;2022-10-31T07:24:13;13.20;99.90
12436;DHT22;6282;51.440;6.938;2022-10-31T07:26:40;12.90;99.90
12436;DHT22;6282;51.440;6.938;2022-10-31T07:29:09;13.00;99.90
12436;DHT22;6282;51.440;6.938;2022-10-31T07:31:35;13.20;99.90
12436;DHT22;6282;51.440;6.938;2022-10-31T07:34:02;13.00;99.90
12436;DHT22;6282;51.440;6.938;2022-10-31T07:36:29;12.90;99.90
12436;DHT22;6282;51.440;6.938;2022-10-31T07:38:56;13.00;99.90
12436;DHT22;6282;51.440;6.938;2022-10-31T07:41:24;13.10;99.90
12436;DHT22;6282;51.440;6.938;2022-10-31T07:43:51;13.20;99.90
12436;DHT22;6282;51.440;6.938;2022-10-31T07:46:19;13.30;99.90
12436;DHT22;6282;51.440;6.938;2022-10-31T07:48:46;13.30;99.90
12436;DHT22;6282;51.440;6.938;2022-10-31T07:51:12;13.60;99.90
12436;DHT22;6282;51.440;6.938;2022-10-31T07:53:39;13.50;99.90
12436;DHT22;6282;51.440;6.938;2022-10-31T07:56:06;13.30;99.90
12436;DHT22;6282;51.440;6.938;2022-10-31T07:58:33;13.40;99.90
12436;DHT22;6282;51.440;6.938;2022-10-31T08:01:00;13.50;99.90
12436;DHT22;6282;51.440;6.938;2022-10-31T08:03:28;13.60;99.90
12436;DHT22;6282;51.440;6.938;2022-10-31T08:05:56;13.70;99.90
12436;DHT22;6282;51.440;6.938;2022-10-31T08:08:23;13.70;99.90
12436;DHT22;6282;51.440;6.938;2022-10-31T08:10:53;13.70;99.90
12436;DHT22;6282;51.440;6.938;2022-10-31T08:13:20;13.70;99.90
12436;DHT22;6282;51.440;6.938;2022-10-31T08:15:47;13.80;99.90
12436;DHT22;6282;51.440;6.938;2022-10-31T08:18:16;13.90;99.90
12436;DHT22;6282;51.440;6.938;2022-10-31T08:20:44;14.00;99.90
12436;DHT22;6282;51.440;6.938;2022-10-31T08:23:11;14.10;99.90
12436;DHT22;6282;51.440;6.938;2022-10-31T08:25:38;14.20;99.90
12436;DHT22;6282;51.440;6.938;2022-10-31T08:28:06;14.30;99.90
12436;DHT22;6282;51.440;6.938;2022-10-31T08:30:35;14.20;99.90
12436;DHT22;6282;51.440;6.938;2022-10-31T08:33:03;14.30;99.90
12436;DHT22;6282;51.440;6.938;2022-10-31T08:35:31;14.60;99.90
12436;DHT22;6282;51.440;6.938;2022-10-31T08:37:59;14.80;99.90
12436;DHT22;6282;51.440;6.938;2022-10-31T08:40:27;14.90;99.90
12436;DHT22;6282;51.440;6.938;2022-10-31T08:42:59;14.80;99.90
12436;DHT22;6282;51.440;6.938;2022-10-31T08:45:26;15.00;99.90
12436;DHT22;6282;51.440;6.938;2022-10-31T08:47:57;15.00;99.90
12436;DHT22;6282;51.440;6.938;2022-10-31T08:50:24;15.10;99.90
12436;DHT22;6282;51.440;6.938;2022-10-31T08:52:51;15.30;99.90
12436;DHT22;6282;51.440;6.938;2022-10-31T08:55:19;15.30;99.90
12436;DHT22;6282;51.440;6.938;2022-10-31T08:57:46;15.20;99.90
12436;DHT22;6282;51.440;6.938;2022-10-31T09:00:13;15.30;99.90
12436;DHT22;6282;51.440;6.938;2022-10-31T09:02:40;15.30;99.90
12436;DHT22;6282;51.440;6.938;2022-10-31T09:05:07;15.20;99.90
12436;DHT22;6282;51.440;6.938;2022-10-31T09:07:34;15.30;99.90
12436;DHT22;6282;51.440;6.938;2022-10-31T09:10:01;15.40;99.90
12436;DHT22;6282;51.440;6.938;2022-10-31T09:12:29;15.50;99.90
12436;DHT22;6282;51.440;6.938;2022-10-31T09:14:56;15.60;99.90
12436;DHT22;6282;51.440;6.938;2022-10-31T09:17:23;15.50;99.90
12436;DHT22;6282;51.440;6.938;2022-10-31T09:19:52;15.50;99.90
12436;DHT22;6282;51.440;6.938;2022-10-31T09:22:19;15.50;99.90
12436;DHT22;6282;51.440;6.938;2022-10-31T09:24:45;15.50;99.90
12436;DHT22;6282;51.440;6.938;2022-10-31T09:27:12;15.60;99.90
12436;DHT22;6282;51.440;6.938;2022-10-31T09:29:40;15.60;99.90
12436;DHT22;6282;51.440;6.938;2022-10-31T09:32:07;15.60;99.90
12436;DHT22;6282;51.440;6.938;2022-10-31T09:34:34;15.60;99.90
12436;DHT22;6282;51.440;6.938;2022-10-31T09:37:01;15.60;99.90
12436;DHT22;6282;51.440;6.938;2022-10-31T09:39:27;15.70;99.90
12436;DHT22;6282;51.440;6.938;2022-10-31T09:42:17;15.70;99.90
12436;DHT22;6282;51.440;6.938;2022-10-31T09:44:59;15.80;99.90
12436;DHT22;6282;51.440;6.938;2022-10-31T09:47:37;15.80;99.90
12436;DHT22;6282;51.440;6.938;2022-10-31T09:50:14;15.80;99.90
12436;DHT22;6282;51.440;6.938;2022-10-31T09:52:47;16.00;99.90
12436;DHT22;6282;51.440;6.938;2022-10-31T09:55:21;16.10;99.90
12436;DHT22;6282;51.440;6.938;2022-10-31T09:57:50;16.10;99.90
12436;DHT22;6282;51.440;6.938;2022-10-31T10:00:21;16.10;99.90
12436;DHT22;6282;51.440;6.938;2022-10-31T10:02:53;16.10;99.90
12436;DHT22;6282;51.440;6.938;2022-10-31T10:05:27;16.20;99.90
12436;DHT22;6282;51.440;6.938;2022-10-31T10:08:01;16.20;99.90
12436;DHT22;6282;51.440;6.938;2022-10-31T10:10:38;16.30;99.90
12436;DHT22;6282;51.440;6.938;2022-10-31T10:13:30;16.50;99.90
12436;DHT22;6282;51.440;6.938;2022-10-31T10:16:13;16.70;99.90
12436;DHT22;6282;51.440;6.938;2022-10-31T10:18:57;17.00;99.90
12436;DHT22;6282;51.440;6.938;2022-10-31T10:21:32;17.10;99.90
12436;DHT22;6282;51.440;6.938;2022-10-31T10:24:12;17.10;99.90
12436;DHT22;6282;51.440;6.938;2022-10-31T10:26:48;17.20;99.90
12436;DHT22;6282;51.440;6.938;2022-10-31T10:29:27;17.00;99.90
12436;DHT22;6282;51.440;6.938;2022-10-31T10:31:58;17.10;99.90
12436;DHT22;6282;51.440;6.938;2022-10-31T10:34:29;17.10;99.90
12436;DHT22;6282;51.440;6.938;2022-10-31T10:37:01;17.00;99.90
12436;DHT22;6282;51.440;6.938;2022-10-31T10:39:33;17.00;99.90
12436;DHT22;6282;51.440;6.938;2022-10-31T10:42:09;17.00;99.90
12436;DHT22;6282;51.440;6.938;2022-10-31T10:44:51;17.10;99.90
12436;DHT22;6282;51.440;6.938;2022-10-31T10:47:41;17.10;99.90
12436;DHT22;6282;51.440;6.938;2022-10-31T10:50:13;16.90;99.90
12436;DHT22;6282;51.440;6.938;2022-10-31T10:52:46;16.90;99.90
12436;DHT22;6282;51.440;6.938;2022-10-31T10:55:22;16.90;99.90
12436;DHT22;6282;51.440;6.938;2022-10-31T10:57:55;16.90;99.90
12436;DHT22;6282;51.440;6.938;2022-10-31T11:00:24;16.90;99.90
12436;DHT22;6282;51.440;6.938;2022-10-31T11:02:53;16.90;99.90
12436;DHT22;6282;51.440;6.938;2022-10-31T11:05:26;17.00;99.90
12436;DHT22;6282;51.440;6.938;2022-10-31T11:07:54;17.10;99.90
12436;DHT22;6282;51.440;6.938;2022-10-31T11:10:21;17.10;99.90
12436;DHT22;6282;51.440;6.938;2022-10-31T11:13:05;17.10;99.90
12436;DHT22;6282;51.440;6.938;2022-10-31T11:15:36;17.20;99.90
12436;DHT22;6282;51.440;6.938;2022-10-31T11:18:05;17.20;99.90
12436;DHT22;6282;51.440;6.938;2022-10-31T11:20:38;17.10;99.90
12436;DHT22;6282;51.440;6.938;2022-10-31T11:23:16;17.20;99.90
12436;DHT22;6282;51.440;6.938;2022-10-31T11:25:51;17.30;99.90
12436;DHT22;6282;51.440;6.938;2022-10-31T11:28:19;17.40;99.90
12436;DHT22;6282;51.440;6.938;2022-10-31T11:30:49;17.40;99.90
12436;DHT22;6282;51.440;6.938;2022-10-31T11:33:21;17.60;99.90
12436;DHT22;6282;51.440;6.938;2022-10-31T11:35:50;17.60;99.90
12436;DHT22;6282;51.440;6.938;2022-10-31T11:38:20;17.70;99.90
12436;DHT22;6282;51.440;6.938;2022-10-31T11:40:53;17.70;99.90
12436;DHT22;6282;51.440;6.938;2022-10-31T11:43:21;17.70;99.90
12436;DHT22;6282;51.440;6.938;2022-10-31T11:45:48;17.70;99.90
12436;DHT22;6282;51.440;6.938;2022-10-31T11:48:16;17.80;99.90
12436;DHT22;6282;51.440;6.938;2022-10-31T11:50:48;17.80;99.90
12436;DHT22;6282;51.440;6.938;2022-10-31T11:53:17;17.70;99.90
12436;DHT22;6282;51.440;6.938;2022-10-31T11:55:45;17.90;99.90
12436;DHT22;6282;51.440;6.938;2022-10-31T11:58:23;17.80;99.90
12436;DHT22;6282;51.440;6.938;2022-10-31T12:00:52;17.90;99.90
12436;DHT22;6282;51.440;6.938;2022-10-31T12:03:37;18.00;99.90
12436;DHT22;6282;51.440;6.938;2022-10-31T12:06:12;18.00;99.90
12436;DHT22;6282;51.440;6.938;2022-10-31T12:08:41;17.90;99.90
12436;DHT22;6282;51.440;6.938;2022-10-31T12:11:16;17.90;99.90
12436;DHT22;6282;51.440;6.938;2022-10-31T12:13:55;18.00;99.90
12436;DHT22;6282;51.440;6.938;2022-10-31T12:16:29;18.10;99.90
12436;DHT22;6282;51.440;6.938;2022-10-31T12:19:02;18.10;99.90
12436;DHT22;6282;51.440;6.938;2022-10-31T12:21:44;18.10;99.90
12436;DHT22;6282;51.440;6.938;2022-10-31T12:24:22;18.10;99.90
12436;DHT22;6282;51.440;6.938;2022-10-31T12:26:59;18.20;1.00
12436;DHT22;6282;51.440;6.938;2022-10-31T12:29:47;18.10;12.10
12436;DHT22;6282;51.440;6.938;2022-10-31T12:32:28;18.20;1.00
12436;DHT22;6282;51.440;6.938;2022-10-31T12:35:20;18.30;1.00
12436;DHT22;6282;51.440;6.938;2022-10-31T12:38:04;18.30;1.00
12436;DHT22;6282;51.440;6.938;2022-10-31T12:40:47;18.40;99.90
12436;DHT22;6282;51.440;6.938;2022-10-31T12:43:28;18.50;99.90
12436;DHT22;6282;51.440;6.938;2022-10-31T12:46:01;18.50;99.90
12436;DHT22;6282;51.440;6.938;2022-10-31T12:48:52;18.40;86.70
12436;DHT22;6282;51.440;6.938;2022-10-31T12:51:27;18.50;1.00
12436;DHT22;6282;51.440;6.938;2022-10-31T12:54:12;18.60;99.90
12436;DHT22;6282;51.440;6.938;2022-10-31T12:56:47;18.60;1.00
12436;DHT22;6282;51.440;6.938;2022-10-31T12:59:22;18.50;14.90
12436;DHT22;6282;51.440;6.938;2022-10-31T13:01:56;18.70;1.00
12436;DHT22;6282;51.440;6.938;2022-10-31T13:04:35;18.80;1.00
12436;DHT22;6282;51.440;6.938;2022-10-31T13:07:09;18.90;99.90
12436;DHT22;6282;51.440;6.938;2022-10-31T13:09:43;19.00;1.00
12436;DHT22;6282;51.440;6.938;2022-10-31T13:12:14;19.00;99.90
12436;DHT22;6282;51.440;6.938;2022-10-31T13:14:44;19.10;99.90
12436;DHT22;6282;51.440;6.938;2022-10-31T13:17:18;19.10;1.00
12436;DHT22;6282;51.440;6.938;2022-10-31T13:19:55;19.00;99.90
12436;DHT22;6282;51.440;6.938;2022-10-31T13:22:25;19.00;1.00
12436;DHT22;6282;51.440;6.938;2022-10-31T13:24:57;19.00;99.90
12436;DHT22;6282;51.440;6.938;2022-10-31T13:27:28;19.00;22.30
12436;DHT22;6282;51.440;6.938;2022-10-31T13:30:00;19.00;99.90
12436;DHT22;6282;51.440;6.938;2022-10-31T13:32:36;18.90;99.90
12436;DHT22;6282;51.440;6.938;2022-10-31T13:35:07;18.90;99.90
12436;DHT22;6282;51.440;6.938;2022-10-31T13:37:40;19.00;1.00
12436;DHT22;6282;51.440;6.938;2022-10-31T13:40:16;19.00;99.90
12436;DHT22;6282;51.440;6.938;2022-10-31T13:42:53;19.20;1.00
12436;DHT22;6282;51.440;6.938;2022-10-31T13:45:23;19.20;1.00
12436;DHT22;6282;51.440;6.938;2022-10-31T13:47:58;19.10;99.90
12436;DHT22;6282;51.440;6.938;2022-10-31T13:50:26;19.10;99.90
12436;DHT22;6282;51.440;6.938;2022-10-31T13:53:09;19.10;99.90
12436;DHT22;6282;51.440;6.938;2022-10-31T13:55:41;19.10;99.90
12436;DHT22;6282;51.440;6.938;2022-10-31T13:58:24;19.10;99.90
12436;DHT22;6282;51.440;6.938;2022-10-31T14:01:13;19.00;99.90
12436;DHT22;6282;51.440;6.938;2022-10-31T14:03:44;19.00;99.90
12436;DHT22;6282;51.440;6.938;2022-10-31T14:06:12;19.00;1.00
12436;DHT22;6282;51.440;6.938;2022-10-31T14:08:49;18.90;99.90
12436;DHT22;6282;51.440;6.938;2022-10-31T14:11:22;18.90;99.90
12436;DHT22;6282;51.440;6.938;2022-10-31T14:13:52;18.90;99.90
12436;DHT22;6282;51.440;6.938;2022-10-31T14:16:21;18.90;99.90
12436;DHT22;6282;51.440;6.938;2022-10-31T14:18:57;18.90;1.00
12436;DHT22;6282;51.440;6.938;2022-10-31T14:21:29;18.90;99.90
12436;DHT22;6282;51.440;6.938;2022-10-31T14:23:57;19.00;1.00
12436;DHT22;6282;51.440;6.938;2022-10-31T14:26:33;19.00;1.00
12436;DHT22;6282;51.440;6.938;2022-10-31T14:29:02;19.00;1.00
12436;DHT22;6282;51.440;6.938;2022-10-31T14:31:32;18.80;11.30
12436;DHT22;6282;51.440;6.938;2022-10-31T14:34:07;18.80;1.00
12436;DHT22;6282;51.440;6.938;2022-10-31T14:36:51;19.00;99.90
12436;DHT22;6282;51.440;6.938;2022-10-31T14:39:25;19.00;1.00
12436;DHT22;6282;51.440;6.938;2022-10-31T14:42:08;18.70;1.00
12436;DHT22;6282;51.440;6.938;2022-10-31T14:44:53;18.60;8.00
12436;DHT22;6282;51.440;6.938;2022-10-31T14:47:35;18.60;1.00
12436;DHT22;6282;51.440;6.938;2022-10-31T14:52:57;18.80;1.00
12436;DHT22;6282;51.440;6.938;2022-10-31T14:55:26;18.70;1.00
12436;DHT22;6282;51.440;6.938;2022-10-31T14:57:59;18.60;99.90
12436;DHT22;6282;51.440;6.938;2022-10-31T15:00:27;18.70;1.00
12436;DHT22;6282;51.440;6.938;2022-10-31T15:03:06;18.50;13.10
12436;DHT22;6282;51.440;6.938;2022-10-31T15:05:42;18.60;1.00
12436;DHT22;6282;51.440;6.938;2022-10-31T15:08:25;18.70;1.00
12436;DHT22;6282;51.440;6.938;2022-10-31T15:10:53;18.50;99.90
12436;DHT22;6282;51.440;6.938;2022-10-31T15:13:22;18.50;4.80
12436;DHT22;6282;51.440;6.938;2022-10-31T15:15:50;18.50;1.00
12436;DHT22;6282;51.440;6.938;2022-10-31T15:18:21;18.50;1.00
12436;DHT22;6282;51.440;6.938;2022-10-31T15:20:48;18.30;1.00
12436;DHT22;6282;51.440;6.938;2022-10-31T15:23:21;18.30;99.90
12436;DHT22;6282;51.440;6.938;2022-10-31T15:25:48;18.30;99.90
12436;DHT22;6282;51.440;6.938;2022-10-31T15:28:22;18.30;1.00
12436;DHT22;6282;51.440;6.938;2022-10-31T15:30:51;18.40;99.90
12436;DHT22;6282;51.440;6.938;2022-10-31T15:33:24;18.30;1.00
12436;DHT22;6282;51.440;6.938;2022-10-31T15:35:56;18.40;1.00
12436;DHT22;6282;51.440;6.938;2022-10-31T15:38:23;18.50;99.90
12436;DHT22;6282;51.440;6.938;2022-10-31T15:40:53;18.10;99.90
12436;DHT22;6282;51.440;6.938;2022-10-31T15:43:22;17.90;1.00
12436;DHT22;6282;51.440;6.938;2022-10-31T15:45:50;17.80;99.90
12436;DHT22;6282;51.440;6.938;2022-10-31T15:48:18;17.90;99.90
12436;DHT22;6282;51.440;6.938;2022-10-31T15:50:48;17.80;99.90
12436;DHT22;6282;51.440;6.938;2022-10-31T15:53:19;17.80;99.90
12436;DHT22;6282;51.440;6.938;2022-10-31T15:55:49;17.70;99.90
12436;DHT22;6282;51.440;6.938;2022-10-31T15:58:17;17.50;1.00
12436;DHT22;6282;51.440;6.938;2022-10-31T16:00:57;17.40;1.00
12436;DHT22;6282;51.440;6.938;2022-10-31T16:03:26;17.10;1.00
12436;DHT22;6282;51.440;6.938;2022-10-31T16:05:55;17.00;92.60
12436;DHT22;6282;51.440;6.938;2022-10-31T16:08:32;17.00;1.00
12436;DHT22;6282;51.440;6.938;2022-10-31T16:11:13;17.00;1.00
12436;DHT22;6282;51.440;6.938;2022-10-31T16:13:53;16.90;1.00